createdAt,value
2023-02-24T00:01:52.508Z,25.40
2023-02-24T00:04:20.680Z,25.33
2023-02-24T00:06:47.806Z,23.37
2023-02-24T00:09:15.693Z,21.27
2023-02-24T00:11:48.304Z,21.63
2023-02-24T00:14:16.278Z,22.13
2023-02-24T00:16:46.654Z,21.47
2023-02-24T00:19:17.769Z,22.67
2023-02-24T00:21:45.033Z,22.63
2023-02-24T00:24:11.775Z,21.87
2023-02-24T00:26:38.489Z,22.03
2023-02-24T00:29:06.811Z,23.47
2023-02-24T00:31:33.454Z,22.03
2023-02-24T00:34:01.760Z,21.90
2023-02-24T00:36:33.644Z,23.20
2023-02-24T00:39:02.959Z,24.47
2023-02-24T00:41:30.909Z,22.00
2023-02-24T00:44:06.554Z,20.77
2023-02-24T00:46:39.304Z,22.13
2023-02-24T00:49:10.404Z,23.43
2023-02-24T00:51:39.334Z,23.60
2023-02-24T00:54:06.356Z,22.20
2023-02-24T00:56:33.056Z,23.00
2023-02-24T00:59:00.030Z,21.83
2023-02-24T01:01:33.129Z,23.07
2023-02-24T01:04:11.058Z,23.00
2023-02-24T01:06:43.459Z,23.17
2023-02-24T01:09:15.136Z,23.90
2023-02-24T01:12:02.958Z,20.40
2023-02-24T01:14:31.262Z,19.93
2023-02-24T01:16:58.079Z,21.80
2023-02-24T01:19:30.455Z,23.33
2023-02-24T01:22:05.334Z,24.03
2023-02-24T01:24:37.010Z,20.40
2023-02-24T01:27:04.138Z,26.13
2023-02-24T01:29:30.807Z,23.87
2023-02-24T01:31:58.696Z,21.20
2023-02-24T01:34:26.754Z,19.57
2023-02-24T01:36:53.694Z,21.67
2023-02-24T01:39:20.997Z,25.40
2023-02-24T01:41:53.067Z,21.33
2023-02-24T01:44:22.368Z,20.43
2023-02-24T01:46:51.628Z,23.80
2023-02-24T01:49:34.364Z,23.80
2023-02-24T01:52:06.198Z,23.87
2023-02-24T01:54:36.566Z,23.63
2023-02-24T01:57:05.847Z,23.33
2023-02-24T01:59:35.489Z,23.13
2023-02-24T02:02:04.704Z,21.87
2023-02-24T02:04:35.823Z,24.23
2023-02-24T02:07:02.666Z,23.10
2023-02-24T02:09:31.720Z,22.17
2023-02-24T02:11:58.333Z,21.97
2023-02-24T02:14:25.920Z,23.67
2023-02-24T02:17:02.617Z,22.60
2023-02-24T02:19:47.878Z,22.20
2023-02-24T02:22:58.958Z,23.07
2023-02-24T02:25:49.054Z,25.03
2023-02-24T02:28:57.073Z,24.03
2023-02-24T02:31:50.782Z,22.20
2023-02-24T02:34:51.045Z,22.37
2023-02-24T02:37:25.806Z,21.73
2023-02-24T02:40:19.963Z,23.63
2023-02-24T02:42:58.291Z,24.07
2023-02-24T02:45:47.564Z,24.33
2023-02-24T02:48:25.653Z,25.30
2023-02-24T02:50:57.687Z,23.17
2023-02-24T02:53:30.465Z,23.10
2023-02-24T02:56:01.163Z,22.40
2023-02-24T02:58:32.521Z,27.07
2023-02-24T03:01:03.797Z,26.00
2023-02-24T03:03:33.056Z,26.43
2023-02-24T03:06:06.695Z,25.73
2023-02-24T03:08:37.243Z,24.00
2023-02-24T03:11:05.555Z,27.90
2023-02-24T03:13:36.756Z,22.73
2023-02-24T03:16:04.189Z,25.80
2023-02-24T03:18:38.489Z,25.70
2023-02-24T03:21:11.960Z,26.43
2023-02-24T03:23:45.348Z,23.10
2023-02-24T03:26:21.498Z,22.10
2023-02-24T03:28:52.897Z,27.13
2023-02-24T03:31:27.741Z,26.03
2023-02-24T03:34:19.269Z,21.93
2023-02-24T03:36:47.627Z,25.00
2023-02-24T03:39:15.915Z,24.60
2023-02-24T03:42:06.480Z,25.23
2023-02-24T03:44:34.679Z,25.10
2023-02-24T03:47:02.248Z,22.03
2023-02-24T03:49:29.401Z,23.30
2023-02-24T03:52:21.392Z,27.07
2023-02-24T03:55:06.791Z,24.50
2023-02-24T03:58:12.707Z,22.03
2023-02-24T04:00:58.154Z,23.60
2023-02-24T04:03:35.501Z,23.70
2023-02-24T04:06:22.132Z,24.77
2023-02-24T04:09:10.770Z,24.83
2023-02-24T04:11:51.626Z,23.63
2023-02-24T04:14:24.826Z,23.87
2023-02-24T04:16:57.116Z,23.93
2023-02-24T04:19:27.581Z,26.10
2023-02-24T04:21:55.019Z,22.47
2023-02-24T04:24:29.021Z,24.17
2023-02-24T04:26:59.054Z,27.53
2023-02-24T04:29:29.115Z,23.03
2023-02-24T04:32:03.432Z,25.20
2023-02-24T04:34:32.354Z,24.73
2023-02-24T04:37:02.140Z,25.73
2023-02-24T04:39:30.789Z,28.13
2023-02-24T04:42:02.774Z,24.50
2023-02-24T04:44:29.289Z,26.30
2023-02-24T04:46:56.549Z,27.40
2023-02-24T04:49:23.011Z,25.53
2023-02-24T04:51:51.482Z,25.57
2023-02-24T04:54:19.615Z,26.27
2023-02-24T04:56:53.992Z,24.20
2023-02-24T04:59:22.139Z,23.40
2023-02-24T05:01:51.574Z,27.30
2023-02-24T05:04:18.783Z,26.00
2023-02-24T05:06:46.173Z,27.00
2023-02-24T05:09:17.916Z,24.60
2023-02-24T05:11:46.210Z,25.23
2023-02-24T05:14:14.749Z,25.70
2023-02-24T05:16:46.106Z,25.33
2023-02-24T05:19:34.020Z,25.37
2023-02-24T05:22:02.930Z,25.93
2023-02-24T05:24:31.152Z,29.60
2023-02-24T05:26:59.122Z,27.30
2023-02-24T05:29:32.434Z,23.30
2023-02-24T05:32:02.454Z,27.37
2023-02-24T05:34:30.757Z,28.73
2023-02-24T05:36:58.405Z,27.23
2023-02-24T05:39:26.523Z,26.87
2023-02-24T05:41:54.664Z,30.97
2023-02-24T05:44:25.968Z,28.47
2023-02-24T05:46:59.245Z,26.03
2023-02-24T05:49:29.499Z,29.03
2023-02-24T05:51:57.965Z,24.80
2023-02-24T05:54:30.033Z,28.43
2023-02-24T05:57:08.986Z,24.37
2023-02-24T05:59:35.843Z,25.20
2023-02-24T06:02:09.165Z,27.73
2023-02-24T06:04:40.961Z,31.70
2023-02-24T06:07:28.014Z,28.97
2023-02-24T06:09:57.223Z,26.47
2023-02-24T06:12:28.989Z,27.33
2023-02-24T06:14:55.669Z,25.70
2023-02-24T06:17:22.828Z,30.83
2023-02-24T06:19:50.693Z,28.50
2023-02-24T06:22:19.724Z,28.93
2023-02-24T06:24:49.123Z,26.10
2023-02-24T06:27:18.604Z,27.20
2023-02-24T06:29:46.282Z,25.40
2023-02-24T06:32:12.864Z,27.40
2023-02-24T06:34:40.021Z,27.17
2023-02-24T06:37:07.421Z,27.90
2023-02-24T06:39:36.743Z,29.03
2023-02-24T06:42:05.005Z,28.20
2023-02-24T06:44:33.741Z,26.83
2023-02-24T06:47:00.758Z,29.27
2023-02-24T06:49:27.865Z,26.03
2023-02-24T06:51:54.899Z,29.10
2023-02-24T06:54:22.396Z,28.37
2023-02-24T06:56:49.752Z,27.03
2023-02-24T06:59:21.597Z,27.67
2023-02-24T07:01:48.791Z,27.90
2023-02-24T07:04:16.106Z,29.63
2023-02-24T07:06:43.978Z,27.90
2023-02-24T07:09:13.389Z,28.80
2023-02-24T07:11:42.242Z,25.00
2023-02-24T07:14:11.153Z,25.37
2023-02-24T07:16:41.534Z,28.07
2023-02-24T07:19:13.736Z,25.00
2023-02-24T07:21:43.255Z,26.70
2023-02-24T07:24:13.347Z,22.63
2023-02-24T07:26:41.692Z,26.87
2023-02-24T07:29:11.364Z,26.37
2023-02-24T07:31:39.780Z,26.83
2023-02-24T07:34:06.371Z,25.83
2023-02-24T07:36:38.970Z,28.07
2023-02-24T07:39:08.055Z,27.90
2023-02-24T07:41:34.873Z,28.80
2023-02-24T07:44:03.368Z,24.90
2023-02-24T07:46:30.471Z,26.13
2023-02-24T07:48:59.177Z,25.07
2023-02-24T07:51:27.541Z,27.37
2023-02-24T07:53:58.822Z,28.13
2023-02-24T07:56:27.042Z,28.70
2023-02-24T07:59:07.822Z,25.93
2023-02-24T08:01:38.962Z,27.33
2023-02-24T08:04:08.098Z,26.47
2023-02-24T08:06:39.438Z,24.10
2023-02-24T08:09:17.167Z,24.90
2023-02-24T08:11:52.659Z,25.40
2023-02-24T08:14:24.875Z,23.20
2023-02-24T08:16:59.215Z,22.97
2023-02-24T08:19:32.792Z,27.37
2023-02-24T08:22:19.693Z,24.87
2023-02-24T08:25:00.609Z,24.20
2023-02-24T08:27:32.144Z,27.70
2023-02-24T08:30:03.626Z,24.20
2023-02-24T08:32:43.619Z,24.93
2023-02-24T08:35:18.753Z,25.33
2023-02-24T08:37:50.625Z,25.50
2023-02-24T08:40:32.921Z,24.73
2023-02-24T08:43:00.437Z,25.23
2023-02-24T08:45:33.359Z,19.97
2023-02-24T08:48:18.141Z,25.13
2023-02-24T08:50:45.653Z,25.07
2023-02-24T08:53:18.995Z,23.53
2023-02-24T08:55:52.448Z,25.83
2023-02-24T08:58:19.709Z,24.57
2023-02-24T09:00:49.656Z,24.10
2023-02-24T09:03:28.020Z,23.00
2023-02-24T09:06:08.837Z,23.23
2023-02-24T09:08:38.511Z,24.47
2023-02-24T09:11:10.520Z,24.00
2023-02-24T09:13:42.971Z,23.60
2023-02-24T09:16:16.453Z,21.07
2023-02-24T09:18:43.163Z,22.37
2023-02-24T09:21:29.954Z,23.07
2023-02-24T09:23:56.510Z,24.17
2023-02-24T09:26:23.036Z,24.87
2023-02-24T09:28:54.481Z,22.93
2023-02-24T09:31:24.670Z,24.00
2023-02-24T09:33:51.431Z,23.30
2023-02-24T09:36:30.037Z,22.47
2023-02-24T09:39:01.618Z,20.60
2023-02-24T09:41:57.192Z,21.07
2023-02-24T09:44:33.381Z,23.23
2023-02-24T09:47:18.833Z,22.30
2023-02-24T09:50:14.016Z,20.90
2023-02-24T09:52:41.028Z,21.67
2023-02-24T09:55:24.923Z,22.03
2023-02-24T09:58:19.845Z,22.60
2023-02-24T10:01:21.764Z,21.33
2023-02-24T10:04:18.713Z,21.20
2023-02-24T10:07:17.534Z,22.57
2023-02-24T10:09:51.070Z,22.30
2023-02-24T10:12:17.677Z,22.23
2023-02-24T10:15:18.887Z,23.20
2023-02-24T10:17:55.404Z,20.67
2023-02-24T10:20:40.120Z,22.27
2023-02-24T10:23:12.428Z,20.83
2023-02-24T10:25:53.643Z,20.53
2023-02-24T10:28:40.212Z,22.07
2023-02-24T10:31:39.432Z,21.23
2023-02-24T10:34:11.142Z,19.70
2023-02-24T10:36:39.095Z,19.10
2023-02-24T10:39:08.459Z,18.30
2023-02-24T10:41:58.747Z,18.20
2023-02-24T10:44:35.841Z,18.30
2023-02-24T10:47:14.226Z,17.20
2023-02-24T10:49:57.865Z,18.87
2023-02-24T10:52:58.044Z,17.53
2023-02-24T10:55:43.141Z,18.13
2023-02-24T10:58:27.802Z,17.60
2023-02-24T11:01:07.592Z,17.10
2023-02-24T11:03:42.040Z,16.90
2023-02-24T11:06:34.764Z,15.20
2023-02-24T11:09:19.520Z,14.87
2023-02-24T11:12:05.705Z,14.97
2023-02-24T11:14:58.486Z,15.87
2023-02-24T11:17:28.091Z,15.00
2023-02-24T11:19:59.704Z,16.40
2023-02-24T11:22:38.422Z,14.97
2023-02-24T11:25:08.301Z,16.20
2023-02-24T11:27:34.931Z,16.50
2023-02-24T11:30:19.899Z,17.27
2023-02-24T11:33:05.120Z,15.10
2023-02-24T11:35:48.244Z,14.47
2023-02-24T11:38:33.407Z,15.20
2023-02-24T11:41:15.941Z,16.17
2023-02-24T11:43:44.006Z,14.60
2023-02-24T11:46:16.653Z,15.57
2023-02-24T11:48:47.186Z,15.17
2023-02-24T11:51:18.350Z,13.87
2023-02-24T11:53:55.492Z,13.77
2023-02-24T11:56:30.597Z,15.00
2023-02-24T11:59:03.135Z,14.10
2023-02-24T12:01:35.885Z,13.80
2023-02-24T12:04:47.696Z,14.60
2023-02-24T12:07:17.132Z,15.07
2023-02-24T12:09:51.836Z,14.37
2023-02-24T12:12:31.237Z,15.10
2023-02-24T12:15:00.254Z,15.20
2023-02-24T12:17:37.267Z,13.27
2023-02-24T12:20:21.221Z,12.80
2023-02-24T12:23:18.096Z,15.63
2023-02-24T12:26:08.898Z,12.30
2023-02-24T12:28:51.200Z,14.97
2023-02-24T12:31:30.348Z,14.20
2023-02-24T12:34:00.650Z,13.93
2023-02-24T12:36:32.866Z,14.57
2023-02-24T12:39:42.010Z,12.13
2023-02-24T12:42:39.892Z,14.70
2023-02-24T12:45:31.029Z,12.80
2023-02-24T12:48:25.406Z,15.70
2023-02-24T12:50:58.428Z,12.10
2023-02-24T12:53:48.491Z,12.60
2023-02-24T12:56:24.250Z,13.00
2023-02-24T12:58:53.240Z,13.37
2023-02-24T13:01:51.400Z,12.77
2023-02-24T13:04:54.933Z,12.43
2023-02-24T13:07:51.906Z,11.47
2023-02-24T13:10:31.065Z,13.20
2023-02-24T13:13:08.758Z,14.30
2023-02-24T13:15:35.225Z,13.00
2023-02-24T13:18:01.768Z,12.77
2023-02-24T13:20:34.413Z,12.33
2023-02-24T13:23:03.392Z,11.30
2023-02-24T13:25:35.336Z,11.37
2023-02-24T13:28:04.154Z,12.63
2023-02-24T13:30:37.761Z,12.17
2023-02-24T13:33:22.855Z,11.80
2023-02-24T13:35:52.729Z,12.30
2023-02-24T13:38:36.924Z,12.87
2023-02-24T13:41:24.849Z,12.70
2023-02-24T13:44:01.419Z,12.30
2023-02-24T13:46:51.128Z,12.60
2023-02-24T13:49:52.926Z,11.60
2023-02-24T13:52:54.373Z,11.07
2023-02-24T13:55:50.917Z,12.73
2023-02-24T13:58:27.386Z,11.67
2023-02-24T14:00:59.969Z,11.90
2023-02-24T14:03:28.356Z,11.77
2023-02-24T14:05:55.441Z,10.77
2023-02-24T14:08:25.781Z,12.10
2023-02-24T14:10:55.637Z,12.07
2023-02-24T14:13:27.733Z,12.40
2023-02-24T14:15:55.040Z,11.60
2023-02-24T14:18:29.704Z,12.63
2023-02-24T14:20:58.230Z,11.73
2023-02-24T14:23:33.287Z,12.03
2023-02-24T14:26:06.147Z,12.17
2023-02-24T14:28:38.004Z,13.33
2023-02-24T14:31:13.580Z,13.37
2023-02-24T14:33:42.114Z,10.20
2023-02-24T14:36:21.271Z,11.90
2023-02-24T14:39:00.798Z,11.30
2023-02-24T14:41:27.798Z,11.30
2023-02-24T14:43:55.449Z,11.00
2023-02-24T14:46:22.667Z,12.10
2023-02-24T14:48:54.916Z,11.57
2023-02-24T14:51:35.757Z,10.63
2023-02-24T14:54:06.979Z,11.10
2023-02-24T14:56:34.580Z,10.87
2023-02-24T14:59:15.274Z,9.60
2023-02-24T15:01:48.694Z,10.27
2023-02-24T15:04:19.235Z,12.50
2023-02-24T15:06:45.905Z,11.33
2023-02-24T15:09:19.229Z,11.10
2023-02-24T15:11:45.832Z,12.57
2023-02-24T15:14:27.118Z,11.77
2023-02-24T15:17:23.123Z,11.67
2023-02-24T15:19:54.620Z,10.70
2023-02-24T15:22:25.348Z,10.70
2023-02-24T15:24:54.105Z,11.10
2023-02-24T15:27:25.796Z,10.70
2023-02-24T15:30:22.047Z,11.20
2023-02-24T15:32:48.874Z,11.30
2023-02-24T15:35:23.180Z,10.47
2023-02-24T15:37:52.230Z,11.90
2023-02-24T15:40:22.201Z,12.40
2023-02-24T15:43:09.997Z,14.30
2023-02-24T15:45:38.835Z,12.93
2023-02-24T15:48:22.859Z,12.97
2023-02-24T15:50:50.362Z,13.27
2023-02-24T15:53:17.034Z,12.47
2023-02-24T15:55:44.216Z,12.10
2023-02-24T15:58:17.193Z,13.20
2023-02-24T16:00:45.337Z,11.93
2023-02-24T16:03:12.643Z,12.57
2023-02-24T16:05:39.607Z,12.67
2023-02-24T16:08:10.243Z,13.33
2023-02-24T16:10:36.680Z,14.47
2023-02-24T16:13:03.200Z,15.03
2023-02-24T16:15:38.092Z,15.13
2023-02-24T16:18:08.379Z,13.20
2023-02-24T16:20:39.595Z,15.43
2023-02-24T16:23:06.257Z,12.53
2023-02-24T16:25:42.026Z,14.90
2023-02-24T16:28:19.098Z,12.77
2023-02-24T16:30:46.174Z,14.03
2023-02-24T16:33:14.391Z,14.50
2023-02-24T16:35:42.936Z,14.50
2023-02-24T16:38:16.866Z,11.30
2023-02-24T16:40:46.619Z,14.20
2023-02-24T16:43:13.354Z,13.60
2023-02-24T16:45:41.255Z,14.27
2023-02-24T16:48:14.270Z,13.60
2023-02-24T16:50:42.748Z,14.83
2023-02-24T16:53:14.106Z,13.67
2023-02-24T16:55:40.772Z,13.93
2023-02-24T16:58:07.246Z,14.70
2023-02-24T17:00:33.722Z,13.93
2023-02-24T17:03:01.652Z,14.83
2023-02-24T17:05:29.028Z,14.63
2023-02-24T17:07:57.206Z,13.20
2023-02-24T17:10:24.901Z,13.13
2023-02-24T17:12:51.872Z,14.60
2023-02-24T17:15:21.619Z,13.70
2023-02-24T17:17:48.423Z,15.43
2023-02-24T17:20:16.596Z,15.10
2023-02-24T17:22:43.691Z,15.50
2023-02-24T17:25:24.991Z,15.47
2023-02-24T17:27:52.548Z,15.87
2023-02-24T17:30:22.136Z,16.50
2023-02-24T17:32:48.672Z,17.77
2023-02-24T17:35:15.236Z,16.43
2023-02-24T17:37:41.787Z,18.00
2023-02-24T17:40:09.311Z,15.80
2023-02-24T17:42:35.854Z,17.37
2023-02-24T17:45:02.837Z,17.13
2023-02-24T17:47:31.013Z,15.27
2023-02-24T17:49:57.611Z,16.33
2023-02-24T17:52:24.377Z,18.27
2023-02-24T17:54:50.852Z,18.10
2023-02-24T17:57:17.509Z,17.40
2023-02-24T17:59:45.722Z,16.27
2023-02-24T18:02:13.696Z,16.53
2023-02-24T18:04:40.513Z,17.50
2023-02-24T18:07:08.051Z,17.73
2023-02-24T18:09:34.516Z,15.60
2023-02-24T18:12:01.171Z,17.37
2023-02-24T18:14:28.383Z,16.83
2023-02-24T18:16:54.858Z,17.90
2023-02-24T18:19:21.362Z,16.83
2023-02-24T18:21:47.821Z,16.07
2023-02-24T18:24:14.265Z,16.87
2023-02-24T18:26:41.465Z,16.03
2023-02-24T18:29:07.958Z,18.10
2023-02-24T18:31:34.672Z,17.83
2023-02-24T18:34:01.708Z,17.60
2023-02-24T18:36:28.173Z,17.63
2023-02-24T18:38:56.919Z,16.57
2023-02-24T18:41:23.861Z,17.27
2023-02-24T18:43:51.850Z,15.53
2023-02-24T18:46:19.096Z,18.17
2023-02-24T18:48:46.172Z,18.70
2023-02-24T18:51:17.618Z,15.10
2023-02-24T18:53:44.351Z,14.97
2023-02-24T18:56:13.589Z,16.53
2023-02-24T18:58:40.785Z,16.60
2023-02-24T19:01:15.822Z,17.00
2023-02-24T19:03:43.436Z,14.73
2023-02-24T19:06:11.267Z,16.00
2023-02-24T19:08:38.928Z,14.47
2023-02-24T19:11:16.477Z,15.10
2023-02-24T19:13:43.354Z,12.90
2023-02-24T19:16:10.463Z,14.53
2023-02-24T19:18:37.013Z,13.77
2023-02-24T19:21:07.587Z,12.67
2023-02-24T19:23:34.337Z,13.77
2023-02-24T19:26:00.820Z,14.97
2023-02-24T19:28:27.405Z,13.00
2023-02-24T19:30:54.151Z,12.20
2023-02-24T19:33:21.529Z,11.67
2023-02-24T19:35:48.282Z,12.20
2023-02-24T19:38:16.537Z,9.70
2023-02-24T19:40:43.723Z,10.00
2023-02-24T19:43:10.472Z,9.87
2023-02-24T19:45:41.774Z,9.70
2023-02-24T19:48:08.557Z,9.10
2023-02-24T19:50:35.088Z,11.20
2023-02-24T19:53:01.541Z,8.77
2023-02-24T19:55:28.042Z,9.30
2023-02-24T19:57:54.767Z,10.53
2023-02-24T20:00:23.325Z,9.97
2023-02-24T20:02:50.218Z,8.47
2023-02-24T20:05:17.099Z,9.90
2023-02-24T20:07:43.632Z,9.43
2023-02-24T20:10:11.079Z,8.80
2023-02-24T20:12:38.278Z,8.17
2023-02-24T20:15:05.412Z,7.83
2023-02-24T20:17:34.021Z,8.40
2023-02-24T20:20:00.714Z,10.40
2023-02-24T20:22:27.224Z,8.67
2023-02-24T20:24:53.762Z,8.23
2023-02-24T20:27:20.190Z,9.20
2023-02-24T20:29:46.979Z,9.67
2023-02-24T20:32:13.521Z,8.80
2023-02-24T20:34:40.071Z,8.33
2023-02-24T20:37:06.628Z,8.43
2023-02-24T20:39:33.526Z,9.33
2023-02-24T20:42:01.332Z,8.73
2023-02-24T20:44:28.269Z,9.57
2023-02-24T20:46:54.883Z,8.63
2023-02-24T20:49:21.370Z,8.37
2023-02-24T20:51:47.927Z,8.70
2023-02-24T20:54:14.762Z,7.23
2023-02-24T20:56:42.802Z,8.37
2023-02-24T20:59:12.737Z,8.60
2023-02-24T21:01:39.575Z,7.17
2023-02-24T21:04:07.834Z,7.57
2023-02-24T21:06:34.993Z,7.67
2023-02-24T21:09:01.465Z,8.00
2023-02-24T21:11:30.228Z,7.50
2023-02-24T21:13:57.644Z,8.00
2023-02-24T21:16:24.650Z,7.20
2023-02-24T21:18:53.047Z,8.13
2023-02-24T21:21:20.160Z,7.23
2023-02-24T21:23:47.639Z,9.70
2023-02-24T21:26:14.391Z,7.90
2023-02-24T21:28:40.935Z,8.83
2023-02-24T21:31:15.906Z,7.70
2023-02-24T21:33:42.703Z,8.20
2023-02-24T21:36:13.459Z,7.90
2023-02-24T21:38:41.130Z,6.97
2023-02-24T21:41:14.601Z,8.33
2023-02-24T21:43:42.018Z,7.27
2023-02-24T21:46:11.333Z,7.23
2023-02-24T21:48:38.705Z,6.97
2023-02-24T21:51:08.630Z,8.03
2023-02-24T21:53:39.000Z,9.37
2023-02-24T21:56:06.499Z,7.50
2023-02-24T21:58:33.089Z,8.33
2023-02-24T22:00:59.649Z,6.30
2023-02-24T22:03:26.258Z,6.40
2023-02-24T22:05:53.624Z,8.40
2023-02-24T22:08:20.228Z,8.63
2023-02-24T22:10:47.321Z,8.43
2023-02-24T22:13:13.764Z,7.93
2023-02-24T22:15:40.337Z,8.73
2023-02-24T22:18:07.400Z,7.43
2023-02-24T22:20:33.881Z,8.10
2023-02-24T22:23:00.375Z,7.90
2023-02-24T22:25:26.856Z,8.10
2023-02-24T22:27:53.338Z,6.60
2023-02-24T22:30:19.907Z,9.30
2023-02-24T22:32:46.456Z,9.20
2023-02-24T22:35:12.952Z,10.20
2023-02-24T22:37:39.475Z,9.83
2023-02-24T22:40:06.581Z,10.93
2023-02-24T22:42:33.080Z,8.50
2023-02-24T22:45:00.218Z,10.90
2023-02-24T22:47:26.794Z,10.50
2023-02-24T22:49:53.587Z,9.63
2023-02-24T22:52:20.333Z,9.23
2023-02-24T22:54:46.792Z,10.13
2023-02-24T22:57:14.217Z,10.23
2023-02-24T22:59:40.687Z,11.20
2023-02-24T23:02:09.400Z,9.73
2023-02-24T23:04:36.056Z,9.47
2023-02-24T23:07:03.423Z,9.30
2023-02-24T23:09:30.426Z,9.67
2023-02-24T23:11:57.236Z,10.17
2023-02-24T23:14:24.749Z,9.00
2023-02-24T23:16:54.951Z,9.20
2023-02-24T23:19:22.729Z,9.43
2023-02-24T23:21:53.526Z,8.53
2023-02-24T23:24:22.123Z,8.70
2023-02-24T23:26:54.063Z,10.87
2023-02-24T23:29:22.145Z,11.07
2023-02-24T23:31:49.100Z,10.47
2023-02-24T23:34:16.067Z,9.93
2023-02-24T23:36:44.251Z,11.60
2023-02-24T23:39:12.625Z,9.13
2023-02-24T23:41:39.252Z,9.83
2023-02-24T23:44:06.014Z,9.93
2023-02-24T23:46:33.828Z,10.40
2023-02-24T23:49:00.852Z,8.27
2023-02-24T23:51:35.797Z,10.60
2023-02-24T23:54:08.665Z,9.90
2023-02-24T23:56:36.481Z,8.20
2023-02-24T23:59:03.546Z,8.60
